sensor_id;sensor_type;location;lat;lon;timestamp;P1;durP1;ratioP1;P2;durP2;ratioP2
10116;SDS011;5098;48.792;9.012;2022-08-14T00:01:21;4.97;;;4.27;;
10116;SDS011;5098;48.792;9.012;2022-08-14T00:03:47;4.47;;;4.07;;
10116;SDS011;5098;48.792;9.012;2022-08-14T00:06:13;3.90;;;3.50;;
10116;SDS011;5098;48.792;9.012;2022-08-14T00:08:39;4.07;;;3.77;;
10116;SDS011;5098;48.792;9.012;2022-08-14T00:11:05;5.27;;;3.50;;
10116;SDS011;5098;48.792;9.012;2022-08-14T00:13:31;3.63;;;3.33;;
10116;SDS011;5098;48.792;9.012;2022-08-14T00:15:59;4.33;;;3.50;;
10116;SDS011;5098;48.792;9.012;2022-08-14T00:18:26;4.20;;;3.50;;
10116;SDS011;5098;48.792;9.012;2022-08-14T00:20:53;3.83;;;3.53;;
10116;SDS011;5098;48.792;9.012;2022-08-14T00:23:19;7.87;;;3.80;;
10116;SDS011;5098;48.792;9.012;2022-08-14T00:25:47;3.50;;;3.10;;
10116;SDS011;5098;48.792;9.012;2022-08-14T00:28:13;3.80;;;3.50;;
10116;SDS011;5098;48.792;9.012;2022-08-14T00:30:39;4.53;;;4.17;;
10116;SDS011;5098;48.792;9.012;2022-08-14T00:33:06;4.53;;;4.13;;
10116;SDS011;5098;48.792;9.012;2022-08-14T00:35:33;4.00;;;3.70;;
10116;SDS011;5098;48.792;9.012;2022-08-14T00:37:59;3.77;;;3.47;;
10116;SDS011;5098;48.792;9.012;2022-08-14T00:40:25;4.00;;;3.70;;
10116;SDS011;5098;48.792;9.012;2022-08-14T00:42:51;4.00;;;3.63;;
10116;SDS011;5098;48.792;9.012;2022-08-14T00:45:17;4.00;;;3.63;;
10116;SDS011;5098;48.792;9.012;2022-08-14T00:47:44;4.53;;;4.00;;
10116;SDS011;5098;48.792;9.012;2022-08-14T00:50:12;5.77;;;4.40;;
10116;SDS011;5098;48.792;9.012;2022-08-14T00:52:38;4.40;;;4.10;;
10116;SDS011;5098;48.792;9.012;2022-08-14T00:55:05;4.13;;;3.70;;
10116;SDS011;5098;48.792;9.012;2022-08-14T00:57:33;4.13;;;3.83;;
10116;SDS011;5098;48.792;9.012;2022-08-14T00:59:59;5.53;;;4.50;;
10116;SDS011;5098;48.792;9.012;2022-08-14T01:02:26;4.37;;;3.60;;
10116;SDS011;5098;48.792;9.012;2022-08-14T01:04:54;4.30;;;3.90;;
10116;SDS011;5098;48.792;9.012;2022-08-14T01:07:22;4.33;;;4.03;;
10116;SDS011;5098;48.792;9.012;2022-08-14T01:09:49;7.43;;;4.23;;
10116;SDS011;5098;48.792;9.012;2022-08-14T01:12:15;4.13;;;3.70;;
10116;SDS011;5098;48.792;9.012;2022-08-14T01:14:42;4.23;;;3.83;;
10116;SDS011;5098;48.792;9.012;2022-08-14T01:17:08;4.27;;;3.97;;
10116;SDS011;5098;48.792;9.012;2022-08-14T01:19:34;4.70;;;4.30;;
10116;SDS011;5098;48.792;9.012;2022-08-14T01:22:19;4.97;;;4.57;;
10116;SDS011;5098;48.792;9.012;2022-08-14T01:24:45;4.70;;;4.40;;
10116;SDS011;5098;48.792;9.012;2022-08-14T01:27:19;3.73;;;3.43;;
10116;SDS011;5098;48.792;9.012;2022-08-14T01:29:49;4.80;;;4.40;;
10116;SDS011;5098;48.792;9.012;2022-08-14T01:32:19;6.30;;;4.40;;
10116;SDS011;5098;48.792;9.012;2022-08-14T01:34:47;4.40;;;4.00;;
10116;SDS011;5098;48.792;9.012;2022-08-14T01:37:14;4.23;;;3.93;;
10116;SDS011;5098;48.792;9.012;2022-08-14T01:39:40;4.13;;;3.73;;
10116;SDS011;5098;48.792;9.012;2022-08-14T01:42:07;4.00;;;3.50;;
10116;SDS011;5098;48.792;9.012;2022-08-14T01:44:33;4.20;;;3.90;;
10116;SDS011;5098;48.792;9.012;2022-08-14T01:47:03;4.33;;;3.93;;
10116;SDS011;5098;48.792;9.012;2022-08-14T01:49:33;4.53;;;4.13;;
10116;SDS011;5098;48.792;9.012;2022-08-14T01:51:59;5.03;;;3.97;;
10116;SDS011;5098;48.792;9.012;2022-08-14T01:54:25;4.50;;;4.20;;
10116;SDS011;5098;48.792;9.012;2022-08-14T01:56:53;4.27;;;3.97;;
10116;SDS011;5098;48.792;9.012;2022-08-14T01:59:24;4.83;;;4.33;;
10116;SDS011;5098;48.792;9.012;2022-08-14T02:01:57;4.27;;;3.90;;
10116;SDS011;5098;48.792;9.012;2022-08-14T02:04:25;4.30;;;3.90;;
10116;SDS011;5098;48.792;9.012;2022-08-14T02:06:51;4.33;;;4.03;;
10116;SDS011;5098;48.792;9.012;2022-08-14T02:09:18;4.40;;;4.10;;
10116;SDS011;5098;48.792;9.012;2022-08-14T02:11:45;4.80;;;4.30;;
10116;SDS011;5098;48.792;9.012;2022-08-14T02:14:12;4.00;;;3.70;;
10116;SDS011;5098;48.792;9.012;2022-08-14T02:16:39;4.17;;;3.80;;
10116;SDS011;5098;48.792;9.012;2022-08-14T02:19:14;3.90;;;3.60;;
10116;SDS011;5098;48.792;9.012;2022-08-14T02:21:41;4.40;;;4.00;;
10116;SDS011;5098;48.792;9.012;2022-08-14T02:24:08;4.13;;;3.83;;
10116;SDS011;5098;48.792;9.012;2022-08-14T02:26:38;4.87;;;4.37;;
10116;SDS011;5098;48.792;9.012;2022-08-14T02:31:33;6.30;;;4.47;;
10116;SDS011;5098;48.792;9.012;2022-08-14T02:34:01;6.90;;;4.70;;
10116;SDS011;5098;48.792;9.012;2022-08-14T02:36:27;4.40;;;4.00;;
10116;SDS011;5098;48.792;9.012;2022-08-14T02:38:54;5.30;;;4.83;;
10116;SDS011;5098;48.792;9.012;2022-08-14T02:41:21;4.90;;;4.27;;
10116;SDS011;5098;48.792;9.012;2022-08-14T02:43:47;5.57;;;5.07;;
10116;SDS011;5098;48.792;9.012;2022-08-14T02:46:14;5.13;;;4.63;;
10116;SDS011;5098;48.792;9.012;2022-08-14T02:48:40;4.97;;;4.47;;
10116;SDS011;5098;48.792;9.012;2022-08-14T02:51:11;4.60;;;4.23;;
10116;SDS011;5098;48.792;9.012;2022-08-14T02:53:39;5.43;;;5.03;;
10116;SDS011;5098;48.792;9.012;2022-08-14T02:56:06;5.80;;;4.40;;
10116;SDS011;5098;48.792;9.012;2022-08-14T02:58:32;4.60;;;4.20;;
10116;SDS011;5098;48.792;9.012;2022-08-14T03:01:02;4.43;;;4.13;;
10116;SDS011;5098;48.792;9.012;2022-08-14T03:03:29;4.73;;;4.37;;
10116;SDS011;5098;48.792;9.012;2022-08-14T03:05:55;4.50;;;4.10;;
10116;SDS011;5098;48.792;9.012;2022-08-14T03:08:21;5.00;;;4.20;;
10116;SDS011;5098;48.792;9.012;2022-08-14T03:10:55;5.10;;;4.50;;
10116;SDS011;5098;48.792;9.012;2022-08-14T03:13:22;5.73;;;5.30;;
10116;SDS011;5098;48.792;9.012;2022-08-14T03:15:49;5.47;;;5.07;;
10116;SDS011;5098;48.792;9.012;2022-08-14T03:18:19;5.63;;;5.13;;
10116;SDS011;5098;48.792;9.012;2022-08-14T03:20:49;5.20;;;4.70;;
10116;SDS011;5098;48.792;9.012;2022-08-14T03:23:16;5.07;;;4.67;;
10116;SDS011;5098;48.792;9.012;2022-08-14T03:25:43;5.23;;;4.83;;
10116;SDS011;5098;48.792;9.012;2022-08-14T03:28:10;6.43;;;4.83;;
10116;SDS011;5098;48.792;9.012;2022-08-14T03:30:36;5.90;;;5.00;;
10116;SDS011;5098;48.792;9.012;2022-08-14T03:33:04;5.10;;;4.60;;
10116;SDS011;5098;48.792;9.012;2022-08-14T03:35:30;5.13;;;4.63;;
10116;SDS011;5098;48.792;9.012;2022-08-14T03:38:15;5.30;;;4.90;;
10116;SDS011;5098;48.792;9.012;2022-08-14T03:40:42;7.80;;;4.83;;
10116;SDS011;5098;48.792;9.012;2022-08-14T03:43:08;5.87;;;4.90;;
10116;SDS011;5098;48.792;9.012;2022-08-14T03:45:36;9.60;;;6.47;;
10116;SDS011;5098;48.792;9.012;2022-08-14T03:48:03;5.70;;;5.30;;
10116;SDS011;5098;48.792;9.012;2022-08-14T03:50:30;6.17;;;5.67;;
10116;SDS011;5098;48.792;9.012;2022-08-14T03:52:57;5.90;;;5.30;;
10116;SDS011;5098;48.792;9.012;2022-08-14T03:55:24;5.47;;;5.07;;
10116;SDS011;5098;48.792;9.012;2022-08-14T03:57:52;5.77;;;5.30;;
10116;SDS011;5098;48.792;9.012;2022-08-14T04:00:19;4.67;;;4.30;;
10116;SDS011;5098;48.792;9.012;2022-08-14T04:02:45;4.67;;;4.37;;
10116;SDS011;5098;48.792;9.012;2022-08-14T04:05:13;5.17;;;4.77;;
10116;SDS011;5098;48.792;9.012;2022-08-14T04:07:39;5.67;;;3.80;;
10116;SDS011;5098;48.792;9.012;2022-08-14T04:10:06;7.30;;;5.60;;
10116;SDS011;5098;48.792;9.012;2022-08-14T04:12:32;6.00;;;5.50;;
10116;SDS011;5098;48.792;9.012;2022-08-14T04:14:59;6.67;;;6.07;;
10116;SDS011;5098;48.792;9.012;2022-08-14T04:17:25;6.70;;;6.20;;
10116;SDS011;5098;48.792;9.012;2022-08-14T04:19:53;6.57;;;5.97;;
10116;SDS011;5098;48.792;9.012;2022-08-14T04:22:20;6.13;;;5.63;;
10116;SDS011;5098;48.792;9.012;2022-08-14T04:24:46;8.77;;;7.90;;
10116;SDS011;5098;48.792;9.012;2022-08-14T04:27:13;9.40;;;7.70;;
10116;SDS011;5098;48.792;9.012;2022-08-14T04:29:39;7.37;;;6.67;;
10116;SDS011;5098;48.792;9.012;2022-08-14T04:32:09;6.27;;;5.70;;
10116;SDS011;5098;48.792;9.012;2022-08-14T04:34:36;5.70;;;5.20;;
10116;SDS011;5098;48.792;9.012;2022-08-14T04:37:05;5.10;;;4.57;;
10116;SDS011;5098;48.792;9.012;2022-08-14T04:39:51;5.40;;;5.00;;
10116;SDS011;5098;48.792;9.012;2022-08-14T04:42:36;4.40;;;4.10;;
10116;SDS011;5098;48.792;9.012;2022-08-14T04:45:20;5.47;;;5.07;;
10116;SDS011;5098;48.792;9.012;2022-08-14T04:47:48;5.30;;;4.80;;
10116;SDS011;5098;48.792;9.012;2022-08-14T04:50:32;5.53;;;5.10;;
10116;SDS011;5098;48.792;9.012;2022-08-14T04:52:59;5.70;;;5.20;;
10116;SDS011;5098;48.792;9.012;2022-08-14T04:55:25;5.47;;;5.07;;
10116;SDS011;5098;48.792;9.012;2022-08-14T04:57:51;7.40;;;5.37;;
10116;SDS011;5098;48.792;9.012;2022-08-14T05:00:17;5.67;;;5.10;;
10116;SDS011;5098;48.792;9.012;2022-08-14T05:02:43;5.67;;;5.17;;
10116;SDS011;5098;48.792;9.012;2022-08-14T05:05:10;6.80;;;6.20;;
10116;SDS011;5098;48.792;9.012;2022-08-14T05:07:36;6.30;;;5.80;;
10116;SDS011;5098;48.792;9.012;2022-08-14T05:10:02;6.57;;;5.90;;
10116;SDS011;5098;48.792;9.012;2022-08-14T05:12:28;6.13;;;5.63;;
10116;SDS011;5098;48.792;9.012;2022-08-14T05:14:55;6.20;;;5.70;;
10116;SDS011;5098;48.792;9.012;2022-08-14T05:17:24;6.00;;;5.47;;
10116;SDS011;5098;48.792;9.012;2022-08-14T05:19:51;6.07;;;5.57;;
10116;SDS011;5098;48.792;9.012;2022-08-14T05:22:18;5.57;;;5.13;;
10116;SDS011;5098;48.792;9.012;2022-08-14T05:24:45;5.67;;;5.20;;
10116;SDS011;5098;48.792;9.012;2022-08-14T05:27:12;6.00;;;5.40;;
10116;SDS011;5098;48.792;9.012;2022-08-14T05:29:38;5.10;;;4.70;;
10116;SDS011;5098;48.792;9.012;2022-08-14T05:32:08;8.37;;;5.00;;
10116;SDS011;5098;48.792;9.012;2022-08-14T05:34:34;4.97;;;4.50;;
10116;SDS011;5098;48.792;9.012;2022-08-14T05:37:00;4.83;;;4.37;;
10116;SDS011;5098;48.792;9.012;2022-08-14T05:39:26;4.50;;;4.10;;
10116;SDS011;5098;48.792;9.012;2022-08-14T05:41:53;4.47;;;4.00;;
10116;SDS011;5098;48.792;9.012;2022-08-14T05:44:20;4.70;;;4.30;;
10116;SDS011;5098;48.792;9.012;2022-08-14T05:46:46;5.00;;;4.50;;
10116;SDS011;5098;48.792;9.012;2022-08-14T05:49:12;6.97;;;4.43;;
10116;SDS011;5098;48.792;9.012;2022-08-14T05:51:39;5.23;;;4.73;;
10116;SDS011;5098;48.792;9.012;2022-08-14T05:54:05;4.80;;;4.40;;
10116;SDS011;5098;48.792;9.012;2022-08-14T05:56:32;5.17;;;4.60;;
10116;SDS011;5098;48.792;9.012;2022-08-14T05:58:58;4.80;;;4.50;;
10116;SDS011;5098;48.792;9.012;2022-08-14T06:01:24;4.23;;;3.83;;
10116;SDS011;5098;48.792;9.012;2022-08-14T06:03:50;5.90;;;4.13;;
10116;SDS011;5098;48.792;9.012;2022-08-14T06:06:16;6.30;;;4.53;;
10116;SDS011;5098;48.792;9.012;2022-08-14T06:08:43;5.23;;;4.73;;
10116;SDS011;5098;48.792;9.012;2022-08-14T06:11:09;6.23;;;4.90;;
10116;SDS011;5098;48.792;9.012;2022-08-14T06:13:39;4.40;;;4.00;;
10116;SDS011;5098;48.792;9.012;2022-08-14T06:16:05;3.80;;;3.50;;
10116;SDS011;5098;48.792;9.012;2022-08-14T06:18:31;4.73;;;4.10;;
10116;SDS011;5098;48.792;9.012;2022-08-14T06:20:57;4.50;;;3.83;;
10116;SDS011;5098;48.792;9.012;2022-08-14T06:23:23;5.10;;;3.80;;
10116;SDS011;5098;48.792;9.012;2022-08-14T06:25:50;4.13;;;3.70;;
10116;SDS011;5098;48.792;9.012;2022-08-14T06:28:23;4.07;;;3.50;;
10116;SDS011;5098;48.792;9.012;2022-08-14T06:30:50;4.23;;;3.43;;
10116;SDS011;5098;48.792;9.012;2022-08-14T06:33:16;4.50;;;3.93;;
10116;SDS011;5098;48.792;9.012;2022-08-14T06:35:43;4.43;;;4.03;;
10116;SDS011;5098;48.792;9.012;2022-08-14T06:38:13;4.30;;;3.90;;
10116;SDS011;5098;48.792;9.012;2022-08-14T06:40:39;4.50;;;4.10;;
10116;SDS011;5098;48.792;9.012;2022-08-14T06:43:07;3.90;;;3.50;;
10116;SDS011;5098;48.792;9.012;2022-08-14T06:45:35;4.30;;;3.90;;
10116;SDS011;5098;48.792;9.012;2022-08-14T06:48:01;3.83;;;3.47;;
10116;SDS011;5098;48.792;9.012;2022-08-14T06:50:28;4.23;;;3.80;;
10116;SDS011;5098;48.792;9.012;2022-08-14T06:52:55;3.73;;;3.43;;
10116;SDS011;5098;48.792;9.012;2022-08-14T06:55:22;4.30;;;3.90;;
10116;SDS011;5098;48.792;9.012;2022-08-14T06:57:49;3.70;;;3.40;;
10116;SDS011;5098;48.792;9.012;2022-08-14T07:00:21;3.97;;;3.60;;
10116;SDS011;5098;48.792;9.012;2022-08-14T07:02:47;9.03;;;3.70;;
10116;SDS011;5098;48.792;9.012;2022-08-14T07:05:32;7.10;;;3.40;;
10116;SDS011;5098;48.792;9.012;2022-08-14T07:10:40;4.43;;;3.47;;
10116;SDS011;5098;48.792;9.012;2022-08-14T07:13:08;3.33;;;3.03;;
10116;SDS011;5098;48.792;9.012;2022-08-14T07:15:34;3.40;;;3.10;;
10116;SDS011;5098;48.792;9.012;2022-08-14T07:18:00;3.20;;;2.87;;
10116;SDS011;5098;48.792;9.012;2022-08-14T07:20:27;3.40;;;2.90;;
10116;SDS011;5098;48.792;9.012;2022-08-14T07:22:54;3.40;;;3.13;;
10116;SDS011;5098;48.792;9.012;2022-08-14T07:25:25;3.90;;;2.67;;
10116;SDS011;5098;48.792;9.012;2022-08-14T07:27:52;3.13;;;2.80;;
10116;SDS011;5098;48.792;9.012;2022-08-14T07:30:18;2.93;;;2.73;;
10116;SDS011;5098;48.792;9.012;2022-08-14T07:32:44;3.23;;;2.93;;
10116;SDS011;5098;48.792;9.012;2022-08-14T07:35:10;4.43;;;3.27;;
10116;SDS011;5098;48.792;9.012;2022-08-14T07:37:36;3.27;;;3.00;;
10116;SDS011;5098;48.792;9.012;2022-08-14T07:40:02;3.33;;;3.03;;
10116;SDS011;5098;48.792;9.012;2022-08-14T07:42:29;3.17;;;2.97;;
10116;SDS011;5098;48.792;9.012;2022-08-14T07:44:56;5.10;;;3.17;;
10116;SDS011;5098;48.792;9.012;2022-08-14T07:47:23;3.80;;;3.13;;
10116;SDS011;5098;48.792;9.012;2022-08-14T07:50:03;3.87;;;3.57;;
10116;SDS011;5098;48.792;9.012;2022-08-14T07:52:29;2.80;;;2.60;;
10116;SDS011;5098;48.792;9.012;2022-08-14T07:54:55;2.67;;;2.47;;
10116;SDS011;5098;48.792;9.012;2022-08-14T07:57:22;2.77;;;2.57;;
10116;SDS011;5098;48.792;9.012;2022-08-14T07:59:48;3.37;;;3.07;;
10116;SDS011;5098;48.792;9.012;2022-08-14T08:02:15;3.10;;;2.90;;
10116;SDS011;5098;48.792;9.012;2022-08-14T08:04:43;3.00;;;2.77;;
10116;SDS011;5098;48.792;9.012;2022-08-14T08:07:10;4.73;;;2.77;;
10116;SDS011;5098;48.792;9.012;2022-08-14T08:09:36;3.20;;;2.87;;
10116;SDS011;5098;48.792;9.012;2022-08-14T08:12:07;3.20;;;2.63;;
10116;SDS011;5098;48.792;9.012;2022-08-14T08:14:35;2.70;;;2.50;;
10116;SDS011;5098;48.792;9.012;2022-08-14T08:17:02;3.50;;;3.20;;
10116;SDS011;5098;48.792;9.012;2022-08-14T08:19:30;2.97;;;2.77;;
10116;SDS011;5098;48.792;9.012;2022-08-14T08:21:57;3.33;;;2.90;;
10116;SDS011;5098;48.792;9.012;2022-08-14T08:24:23;3.60;;;2.40;;
10116;SDS011;5098;48.792;9.012;2022-08-14T08:26:49;4.17;;;2.80;;
10116;SDS011;5098;48.792;9.012;2022-08-14T08:29:19;3.20;;;2.70;;
10116;SDS011;5098;48.792;9.012;2022-08-14T08:31:49;3.47;;;2.90;;
10116;SDS011;5098;48.792;9.012;2022-08-14T08:34:18;3.40;;;2.60;;
10116;SDS011;5098;48.792;9.012;2022-08-14T08:36:46;2.73;;;2.53;;
10116;SDS011;5098;48.792;9.012;2022-08-14T08:39:12;2.87;;;2.60;;
10116;SDS011;5098;48.792;9.012;2022-08-14T08:41:39;3.20;;;3.00;;
10116;SDS011;5098;48.792;9.012;2022-08-14T08:44:05;3.03;;;2.80;;
10116;SDS011;5098;48.792;9.012;2022-08-14T08:46:31;2.90;;;2.70;;
10116;SDS011;5098;48.792;9.012;2022-08-14T08:48:58;4.27;;;3.10;;
10116;SDS011;5098;48.792;9.012;2022-08-14T08:51:28;2.90;;;2.70;;
10116;SDS011;5098;48.792;9.012;2022-08-14T08:53:58;3.93;;;3.10;;
10116;SDS011;5098;48.792;9.012;2022-08-14T08:56:40;3.40;;;2.83;;
10116;SDS011;5098;48.792;9.012;2022-08-14T08:59:23;2.80;;;2.60;;
10116;SDS011;5098;48.792;9.012;2022-08-14T09:01:56;2.83;;;2.63;;
10116;SDS011;5098;48.792;9.012;2022-08-14T09:04:32;2.93;;;2.73;;
10116;SDS011;5098;48.792;9.012;2022-08-14T09:06:59;3.23;;;2.93;;
10116;SDS011;5098;48.792;9.012;2022-08-14T09:09:25;2.97;;;2.57;;
10116;SDS011;5098;48.792;9.012;2022-08-14T09:11:52;3.33;;;3.03;;
10116;SDS011;5098;48.792;9.012;2022-08-14T09:14:23;3.60;;;3.30;;
10116;SDS011;5098;48.792;9.012;2022-08-14T09:16:49;5.10;;;3.00;;
10116;SDS011;5098;48.792;9.012;2022-08-14T09:19:16;3.17;;;2.90;;
10116;SDS011;5098;48.792;9.012;2022-08-14T09:21:42;3.20;;;2.90;;
10116;SDS011;5098;48.792;9.012;2022-08-14T09:24:10;3.00;;;2.73;;
10116;SDS011;5098;48.792;9.012;2022-08-14T09:26:36;4.40;;;3.40;;
10116;SDS011;5098;48.792;9.012;2022-08-14T09:29:04;3.13;;;2.83;;
10116;SDS011;5098;48.792;9.012;2022-08-14T09:31:31;3.60;;;3.30;;
10116;SDS011;5098;48.792;9.012;2022-08-14T09:36:42;3.63;;;3.10;;
10116;SDS011;5098;48.792;9.012;2022-08-14T09:39:16;3.70;;;3.37;;
10116;SDS011;5098;48.792;9.012;2022-08-14T09:44:41;3.83;;;3.23;;
10116;SDS011;5098;48.792;9.012;2022-08-14T09:47:10;4.20;;;3.27;;
10116;SDS011;5098;48.792;9.012;2022-08-14T09:49:37;4.00;;;3.70;;
10116;SDS011;5098;48.792;9.012;2022-08-14T09:52:21;3.70;;;3.40;;
10116;SDS011;5098;48.792;9.012;2022-08-14T09:54:48;3.10;;;2.90;;
10116;SDS011;5098;48.792;9.012;2022-08-14T09:57:25;4.40;;;3.00;;
10116;SDS011;5098;48.792;9.012;2022-08-14T09:59:51;3.13;;;2.93;;
10116;SDS011;5098;48.792;9.012;2022-08-14T10:02:22;3.50;;;3.20;;
10116;SDS011;5098;48.792;9.012;2022-08-14T10:05:49;3.80;;;3.33;;
10116;SDS011;5098;48.792;9.012;2022-08-14T10:07:45;3.27;;;2.97;;
10116;SDS011;5098;48.792;9.012;2022-08-14T10:12:58;3.60;;;3.40;;
10116;SDS011;5098;48.792;9.012;2022-08-14T10:15:27;3.37;;;3.17;;
10116;SDS011;5098;48.792;9.012;2022-08-14T10:21:14;3.87;;;3.57;;
10116;SDS011;5098;48.792;9.012;2022-08-14T10:23:20;4.10;;;3.47;;
10116;SDS011;5098;48.792;9.012;2022-08-14T10:25:47;3.40;;;3.20;;
10116;SDS011;5098;48.792;9.012;2022-08-14T10:28:15;3.17;;;2.97;;
10116;SDS011;5098;48.792;9.012;2022-08-14T10:30:43;2.97;;;2.73;;
10116;SDS011;5098;48.792;9.012;2022-08-14T10:33:22;4.27;;;3.23;;
10116;SDS011;5098;48.792;9.012;2022-08-14T10:35:48;3.03;;;2.83;;
10116;SDS011;5098;48.792;9.012;2022-08-14T10:38:24;4.37;;;3.30;;
10116;SDS011;5098;48.792;9.012;2022-08-14T10:40:51;3.30;;;3.00;;
10116;SDS011;5098;48.792;9.012;2022-08-14T10:43:21;3.93;;;3.37;;
10116;SDS011;5098;48.792;9.012;2022-08-14T10:45:51;3.50;;;3.27;;
10116;SDS011;5098;48.792;9.012;2022-08-14T10:48:18;3.60;;;3.20;;
10116;SDS011;5098;48.792;9.012;2022-08-14T10:50:44;3.80;;;3.50;;
10116;SDS011;5098;48.792;9.012;2022-08-14T10:53:15;3.70;;;3.40;;
10116;SDS011;5098;48.792;9.012;2022-08-14T10:55:56;3.43;;;3.13;;
10116;SDS011;5098;48.792;9.012;2022-08-14T10:58:26;3.90;;;3.20;;
10116;SDS011;5098;48.792;9.012;2022-08-14T11:00:54;3.73;;;3.43;;
10116;SDS011;5098;48.792;9.012;2022-08-14T11:03:21;3.60;;;3.30;;
10116;SDS011;5098;48.792;9.012;2022-08-14T11:05:48;6.00;;;3.40;;
10116;SDS011;5098;48.792;9.012;2022-08-14T11:08:15;3.40;;;3.20;;
10116;SDS011;5098;48.792;9.012;2022-08-14T11:10:47;3.50;;;3.20;;
10116;SDS011;5098;48.792;9.012;2022-08-14T11:13:16;3.50;;;3.30;;
10116;SDS011;5098;48.792;9.012;2022-08-14T11:15:43;3.80;;;3.40;;
10116;SDS011;5098;48.792;9.012;2022-08-14T11:18:10;4.30;;;3.57;;
10116;SDS011;5098;48.792;9.012;2022-08-14T11:20:36;3.53;;;3.27;;
10116;SDS011;5098;48.792;9.012;2022-08-14T11:23:04;3.83;;;3.53;;
10116;SDS011;5098;48.792;9.012;2022-08-14T11:25:31;3.53;;;3.23;;
10116;SDS011;5098;48.792;9.012;2022-08-14T11:28:01;4.03;;;3.63;;
10116;SDS011;5098;48.792;9.012;2022-08-14T11:30:28;3.70;;;3.40;;
10116;SDS011;5098;48.792;9.012;2022-08-14T11:32:55;3.97;;;3.67;;
10116;SDS011;5098;48.792;9.012;2022-08-14T11:35:23;4.03;;;3.57;;
10116;SDS011;5098;48.792;9.012;2022-08-14T11:37:51;3.97;;;3.67;;
10116;SDS011;5098;48.792;9.012;2022-08-14T11:40:17;4.40;;;3.33;;
10116;SDS011;5098;48.792;9.012;2022-08-14T11:42:44;3.77;;;3.33;;
10116;SDS011;5098;48.792;9.012;2022-08-14T11:45:11;3.50;;;3.27;;
10116;SDS011;5098;48.792;9.012;2022-08-14T11:47:37;3.30;;;3.10;;
10116;SDS011;5098;48.792;9.012;2022-08-14T11:50:13;3.40;;;3.10;;
10116;SDS011;5098;48.792;9.012;2022-08-14T11:52:41;4.50;;;3.53;;
10116;SDS011;5098;48.792;9.012;2022-08-14T11:55:09;3.40;;;3.10;;
10116;SDS011;5098;48.792;9.012;2022-08-14T11:57:36;3.70;;;3.40;;
10116;SDS011;5098;48.792;9.012;2022-08-14T12:00:05;5.10;;;3.80;;
10116;SDS011;5098;48.792;9.012;2022-08-14T12:02:32;3.80;;;3.50;;
10116;SDS011;5098;48.792;9.012;2022-08-14T12:04:58;3.57;;;3.23;;
10116;SDS011;5098;48.792;9.012;2022-08-14T12:07:25;3.70;;;3.37;;
10116;SDS011;5098;48.792;9.012;2022-08-14T12:09:52;4.23;;;3.70;;
10116;SDS011;5098;48.792;9.012;2022-08-14T12:12:19;3.90;;;3.60;;
10116;SDS011;5098;48.792;9.012;2022-08-14T12:14:49;3.33;;;3.03;;
10116;SDS011;5098;48.792;9.012;2022-08-14T12:17:17;3.30;;;3.10;;
10116;SDS011;5098;48.792;9.012;2022-08-14T12:19:44;4.23;;;3.60;;
10116;SDS011;5098;48.792;9.012;2022-08-14T12:22:11;3.70;;;3.40;;
10116;SDS011;5098;48.792;9.012;2022-08-14T12:24:37;3.40;;;3.10;;
10116;SDS011;5098;48.792;9.012;2022-08-14T12:27:03;3.83;;;3.50;;
10116;SDS011;5098;48.792;9.012;2022-08-14T12:29:29;5.33;;;3.30;;
10116;SDS011;5098;48.792;9.012;2022-08-14T12:31:59;3.90;;;3.50;;
10116;SDS011;5098;48.792;9.012;2022-08-14T12:34:31;3.87;;;3.47;;
10116;SDS011;5098;48.792;9.012;2022-08-14T12:37:01;3.50;;;3.20;;
10116;SDS011;5098;48.792;9.012;2022-08-14T12:39:29;3.53;;;3.20;;
10116;SDS011;5098;48.792;9.012;2022-08-14T12:41:56;6.77;;;3.47;;
10116;SDS011;5098;48.792;9.012;2022-08-14T12:44:31;3.43;;;2.97;;
10116;SDS011;5098;48.792;9.012;2022-08-14T12:47:11;3.37;;;3.10;;
10116;SDS011;5098;48.792;9.012;2022-08-14T12:49:53;3.90;;;3.27;;
10116;SDS011;5098;48.792;9.012;2022-08-14T12:52:26;3.60;;;3.30;;
10116;SDS011;5098;48.792;9.012;2022-08-14T12:54:59;3.80;;;3.33;;
10116;SDS011;5098;48.792;9.012;2022-08-14T12:57:34;4.07;;;3.47;;
10116;SDS011;5098;48.792;9.012;2022-08-14T13:00:20;3.83;;;3.43;;
10116;SDS011;5098;48.792;9.012;2022-08-14T13:02:47;3.70;;;3.30;;
10116;SDS011;5098;48.792;9.012;2022-08-14T13:05:26;3.70;;;3.30;;
10116;SDS011;5098;48.792;9.012;2022-08-14T13:07:54;3.87;;;3.57;;
10116;SDS011;5098;48.792;9.012;2022-08-14T13:10:21;3.70;;;3.40;;
10116;SDS011;5098;48.792;9.012;2022-08-14T13:12:48;3.07;;;2.87;;
10116;SDS011;5098;48.792;9.012;2022-08-14T13:15:15;5.70;;;3.67;;
10116;SDS011;5098;48.792;9.012;2022-08-14T13:17:47;3.80;;;3.33;;
10116;SDS011;5098;48.792;9.012;2022-08-14T13:20:15;3.13;;;2.90;;
10116;SDS011;5098;48.792;9.012;2022-08-14T13:22:42;3.50;;;3.00;;
10116;SDS011;5098;48.792;9.012;2022-08-14T13:25:09;3.10;;;2.90;;
10116;SDS011;5098;48.792;9.012;2022-08-14T13:27:36;3.40;;;3.10;;
10116;SDS011;5098;48.792;9.012;2022-08-14T13:30:04;3.67;;;3.37;;
10116;SDS011;5098;48.792;9.012;2022-08-14T13:32:31;3.80;;;3.40;;
10116;SDS011;5098;48.792;9.012;2022-08-14T13:34:58;3.53;;;3.30;;
10116;SDS011;5098;48.792;9.012;2022-08-14T13:37:24;3.53;;;3.23;;
10116;SDS011;5098;48.792;9.012;2022-08-14T13:39:52;2.90;;;2.70;;
10116;SDS011;5098;48.792;9.012;2022-08-14T13:42:19;8.60;;;3.47;;
10116;SDS011;5098;48.792;9.012;2022-08-14T13:44:49;3.50;;;3.20;;
10116;SDS011;5098;48.792;9.012;2022-08-14T13:47:15;2.90;;;2.70;;
10116;SDS011;5098;48.792;9.012;2022-08-14T13:49:44;3.80;;;3.10;;
10116;SDS011;5098;48.792;9.012;2022-08-14T13:52:11;3.17;;;2.97;;
10116;SDS011;5098;48.792;9.012;2022-08-14T13:54:39;8.23;;;3.07;;
10116;SDS011;5098;48.792;9.012;2022-08-14T13:57:06;3.10;;;2.80;;
10116;SDS011;5098;48.792;9.012;2022-08-14T13:59:33;3.30;;;2.70;;
10116;SDS011;5098;48.792;9.012;2022-08-14T14:02:04;3.13;;;2.93;;
10116;SDS011;5098;48.792;9.012;2022-08-14T14:04:30;3.03;;;2.50;;
10116;SDS011;5098;48.792;9.012;2022-08-14T14:06:58;2.70;;;2.50;;
10116;SDS011;5098;48.792;9.012;2022-08-14T14:09:29;3.57;;;3.23;;
10116;SDS011;5098;48.792;9.012;2022-08-14T14:11:58;3.47;;;3.17;;
10116;SDS011;5098;48.792;9.012;2022-08-14T14:14:25;2.87;;;2.63;;
10116;SDS011;5098;48.792;9.012;2022-08-14T14:16:51;2.90;;;2.70;;
10116;SDS011;5098;48.792;9.012;2022-08-14T14:19:18;2.80;;;2.60;;
10116;SDS011;5098;48.792;9.012;2022-08-14T14:21:44;3.00;;;2.80;;
10116;SDS011;5098;48.792;9.012;2022-08-14T14:24:13;3.00;;;2.80;;
10116;SDS011;5098;48.792;9.012;2022-08-14T14:26:42;3.13;;;2.93;;
10116;SDS011;5098;48.792;9.012;2022-08-14T14:29:08;3.27;;;2.80;;
10116;SDS011;5098;48.792;9.012;2022-08-14T14:31:38;4.00;;;3.60;;
10116;SDS011;5098;48.792;9.012;2022-08-14T14:34:04;3.03;;;2.73;;
10116;SDS011;5098;48.792;9.012;2022-08-14T14:36:33;3.73;;;3.43;;
10116;SDS011;5098;48.792;9.012;2022-08-14T14:39:00;3.10;;;2.90;;
10116;SDS011;5098;48.792;9.012;2022-08-14T14:41:27;3.20;;;2.90;;
10116;SDS011;5098;48.792;9.012;2022-08-14T14:43:54;3.80;;;2.80;;
10116;SDS011;5098;48.792;9.012;2022-08-14T14:46:23;2.93;;;2.73;;
10116;SDS011;5098;48.792;9.012;2022-08-14T14:48:49;3.47;;;2.77;;
10116;SDS011;5098;48.792;9.012;2022-08-14T14:51:15;3.50;;;3.20;;
10116;SDS011;5098;48.792;9.012;2022-08-14T14:53:42;3.10;;;2.80;;
10116;SDS011;5098;48.792;9.012;2022-08-14T14:56:09;4.87;;;4.27;;
10116;SDS011;5098;48.792;9.012;2022-08-14T14:58:36;4.33;;;3.20;;
10116;SDS011;5098;48.792;9.012;2022-08-14T15:01:05;2.57;;;2.37;;
10116;SDS011;5098;48.792;9.012;2022-08-14T15:03:32;3.03;;;2.83;;
10116;SDS011;5098;48.792;9.012;2022-08-14T15:05:59;3.47;;;3.27;;
10116;SDS011;5098;48.792;9.012;2022-08-14T15:08:25;3.57;;;3.27;;
10116;SDS011;5098;48.792;9.012;2022-08-14T15:10:54;3.13;;;2.93;;
10116;SDS011;5098;48.792;9.012;2022-08-14T15:13:20;3.90;;;2.53;;
10116;SDS011;5098;48.792;9.012;2022-08-14T15:15:46;3.00;;;2.80;;
10116;SDS011;5098;48.792;9.012;2022-08-14T15:18:13;3.53;;;3.07;;
10116;SDS011;5098;48.792;9.012;2022-08-14T15:20:39;3.70;;;2.83;;
10116;SDS011;5098;48.792;9.012;2022-08-14T15:23:05;2.93;;;2.73;;